LTANLTAJ

Guest
Details From LTAN - KONYA
To LTAJ - OGUZELI
Flight Number -
Tags generated
Created
Modified
Stats Distance 260 nm / 481 km
Max Altitude 33,100 ft / 10,089 m
Waypoints 7
Social Downloads 1
Likes 0
Share VATSIM

Download

Looking for another format? Having issues loading an existing format? Contact us
Advertisement - Login to hide

Notes

Basic altitude profile: - Ascent Rate: 2500ft/min - Ascent Speed: 250kts - Cruise Altitude: 35000ft - Cruise Speed: 420kts - Descent Rate: 1500ft/min - Descent Speed: 250kts Options: - Use NATs: yes - Use PACOTS: yes - Use low airways: yes - Use high airways: yes

Route

LTAN KEMER UL601 ADA W74 GAZ LTAJ

ID Type Via Altitude Latitude Longitude Leg Dist Tot Dist Heading (true) Name
O LTAN APT - 0 ft / 0 m 37.97900˚ 32.56185˚ - 0 nm - KONYA
KEMER FIX - 33,100 ft / 10,089 m 37.60050˚ 34.72217˚ 105 nm 105 nm 102° / 103° -
ADA VOR UL601 (AWY-HI) 27,500 ft / 8,382 m 36.94056˚ 35.21028˚ 45 nm 151 nm 149° / 150° ADANA VOR-DME
MILBA FIX W74 (AWY-LO) 11,500 ft / 3,505 m 36.95139˚ 36.47944˚ 60 nm 211 nm 89° / 90° -
KOZAN FIX W74 (AWY-LO) 11,500 ft / 3,505 m 36.95417˚ 37.15417˚ 32 nm 244 nm 90° / 90° -
GAZ NDB W74 (AWY-LO) 11,500 ft / 3,505 m 36.95028˚ 37.47333˚ 15 nm 259 nm 91° / 91° OGUZELI NDB
O LTAJ APT - 0 ft / 0 m 36.94735˚ 37.47806˚ 0 nm 259 nm 128° / 128° OGUZELI

Altitude Profile

Advertisement - Login to hide

Weather


0- 5 10 15 20 25 30 35+ Temperature / ° C

Clouds and Precipitation
Forecast for 2017-12-18 18:00 UTC. Updated 2 hours ago

Ground ~20,000 ft ~40,000 ft Winds

LTAN

Details ICAO LTAN (KYA)
Name KONYA
Region Turkey
Timezone Europe/Istanbul (UTC+3.0)
Stats Elevation 3,381 ft / 1,031 m (AMSL)
Location 37.979000° 32.561847°
Runways 1
Magnetic Variation 5.346° E

METAR

LTAN 181450Z 21014KT 9999 SCT040 BKN100 13/05 Q1015 NOSIG

Decode

TAF

Not found

Departure Runways

ID Width Length Bearing (true) Bearing (mag) Surface Threshold Offset Overrun Length
01 148 ft / 45 m 11,008 ft / 3,355 m 16.74° 11.39° Asphalt 0 ft / 0 m 328 ft / 100 m
19 148 ft / 45 m 11,008 ft / 3,355 m 196.75° 191.40° Asphalt 0 ft / 0 m 328 ft / 100 m

LTAJ

Details ICAO LTAJ (GZT)
Name OGUZELI
Region Turkey
Timezone Europe/Istanbul (UTC+3.0)
Stats Elevation 2,315 ft / 706 m (AMSL)
Location 36.947350° 37.478064°
Runways 2
Magnetic Variation 5.418° E

METAR

LTAJ 181450Z VRB01KT CAVOK 12/03 Q1021 NOSIG

Decode

TAF

Not found

Destination Runways

ID Width Length Bearing (true) Bearing (mag) Surface Threshold Offset Overrun Length
10L 148 ft / 45 m 9,822 ft / 2,994 m 105.04° 99.62° Concrete 427 ft / 130 m 197 ft / 60 m
10R 100 ft / 30 m 9,821 ft / 2,994 m 105.04° 99.62° Concrete 328 ft / 100 m 197 ft / 60 m
28L 100 ft / 30 m 9,821 ft / 2,994 m 285.06° 279.64° Concrete 0 ft / 0 m 197 ft / 60 m
28R 148 ft / 45 m 9,822 ft / 2,994 m 285.06° 279.64° Concrete 0 ft / 0 m 623 ft / 190 m